Etusivu
METAR-TAF:

METAR-TAF

Lentoasemat :

Hoquiam, Washington, Yhdysvallat

Leveyspiiri: 46-58-16N, Pituuspiiri: 123-55-12W, korkeus merenpinnasta: 4 m

Tämänhetkinen sää

Tämä raportti tehtiin 37 minuuttia sitten, kello 12.53 UTC
Tuuli 9 kn idästä
Lämpötila 14°C
Kosteus 82%
Ilmanpaine 1017 hPa
Näkyvyys: 16.1 km
selkeää

METAR: KHQM 291253Z AUTO 10009KT 10SM CLR 14/11 A3003 RMK AO2 SLP173 T01440111

Aika: 06:30 (13:30 UTC)

Sääennuste

Tämä raportti tehtiin 2 tuntia ja 9 minuuttia sitten, kello 11.21 UTC
Ennuste voimassa 29. päivästä klo 12 UTC - 30. päivään klo 12 UTC
Tuuli 10 kn idästä
Näkyvyys: 10 km
selkeää
From 30. päivästä klo 0200 UTC
Tuuli 6 kn idästä
Näkyvyys: 10 km
Hajonneita pilviä 20000 ft:n korkeudessa

TAF: KHQM 291121Z 2912/3012 08010KT P6SM SKC FM300200 10006KT P6SM BKN200

Säähavainnot ja -ennusteet yli 4000 lentoasemalta (METAR- ja TAF-raportit).

Käytössä olevat sääasemat on merkitty karttaan keltaisilla ja punaisilla pisteillä.

Aseta hiiri pisteen päälle nähdäksesi sääaseman nimen.

Klikkaa sitten nähdäksesi säähavainnot ja -ennusteet.

Kartan vaihtaminen: klikkaa mustalla rastilla varustettuja vihreitä pisteitä, niin voit zoomata sisään; viivalla varustettua vihreää pistettä, niin voit zoomata ulos tai vihreitä nuolia, niin pääset viereisille kartoille.


METAR-TAF: